sensor_id;sensor_type;location;lat;lon;timestamp;P1;durP1;ratioP1;P2;durP2;ratioP2
53915;SDS011;39827;49.652;18.770;2022-11-15T00:01:34;32.70;;;29.90;;
53915;SDS011;39827;49.652;18.770;2022-11-15T00:03:59;16.38;;;14.65;;
53915;SDS011;39827;49.652;18.770;2022-11-15T00:06:24;17.60;;;15.75;;
53915;SDS011;39827;49.652;18.770;2022-11-15T00:08:50;16.48;;;14.80;;
53915;SDS011;39827;49.652;18.770;2022-11-15T00:11:15;19.05;;;15.10;;
53915;SDS011;39827;49.652;18.770;2022-11-15T00:13:40;33.17;;;30.38;;
53915;SDS011;39827;49.652;18.770;2022-11-15T00:16:06;16.45;;;14.85;;
53915;SDS011;39827;49.652;18.770;2022-11-15T00:18:31;32.47;;;29.70;;
53915;SDS011;39827;49.652;18.770;2022-11-15T00:21:02;22.45;;;20.38;;
53915;SDS011;39827;49.652;18.770;2022-11-15T00:23:46;18.98;;;17.17;;
53915;SDS011;39827;49.652;18.770;2022-11-15T00:26:12;33.60;;;30.95;;
53915;SDS011;39827;49.652;18.770;2022-11-15T00:28:38;23.10;;;20.45;;
53915;SDS011;39827;49.652;18.770;2022-11-15T00:31:05;22.70;;;20.55;;
53915;SDS011;39827;49.652;18.770;2022-11-15T00:33:32;29.40;;;26.65;;
53915;SDS011;39827;49.652;18.770;2022-11-15T00:36:05;36.38;;;33.55;;
53915;SDS011;39827;49.652;18.770;2022-11-15T00:38:34;18.15;;;16.15;;
53915;SDS011;39827;49.652;18.770;2022-11-15T00:41:01;30.60;;;28.15;;
53915;SDS011;39827;49.652;18.770;2022-11-15T00:43:26;41.22;;;37.97;;
53915;SDS011;39827;49.652;18.770;2022-11-15T00:45:52;21.13;;;16.17;;
53915;SDS011;39827;49.652;18.770;2022-11-15T00:48:17;24.25;;;21.95;;
53915;SDS011;39827;49.652;18.770;2022-11-15T00:50:42;30.45;;;27.85;;
53915;SDS011;39827;49.652;18.770;2022-11-15T00:53:08;100.00;;;92.45;;
53915;SDS011;39827;49.652;18.770;2022-11-15T00:55:33;152.85;;;140.82;;
53915;SDS011;39827;49.652;18.770;2022-11-15T00:57:58;28.70;;;26.35;;
53915;SDS011;39827;49.652;18.770;2022-11-15T01:00:24;50.17;;;46.33;;
53915;SDS011;39827;49.652;18.770;2022-11-15T01:02:49;28.00;;;25.65;;
53915;SDS011;39827;49.652;18.770;2022-11-15T01:05:14;27.25;;;24.92;;
53915;SDS011;39827;49.652;18.770;2022-11-15T01:07:40;24.67;;;22.48;;
53915;SDS011;39827;49.652;18.770;2022-11-15T01:10:05;20.02;;;18.17;;
53915;SDS011;39827;49.652;18.770;2022-11-15T01:12:31;19.80;;;17.90;;
53915;SDS011;39827;49.652;18.770;2022-11-15T01:14:57;26.50;;;24.23;;
53915;SDS011;39827;49.652;18.770;2022-11-15T01:17:22;29.13;;;26.52;;
53915;SDS011;39827;49.652;18.770;2022-11-15T01:19:48;36.88;;;33.92;;
53915;SDS011;39827;49.652;18.770;2022-11-15T01:22:13;26.52;;;24.05;;
53915;SDS011;39827;49.652;18.770;2022-11-15T01:24:39;30.70;;;27.90;;
53915;SDS011;39827;49.652;18.770;2022-11-15T01:27:04;33.28;;;30.08;;
53915;SDS011;39827;49.652;18.770;2022-11-15T01:29:29;36.83;;;33.65;;
53915;SDS011;39827;49.652;18.770;2022-11-15T01:31:55;36.03;;;32.65;;
53915;SDS011;39827;49.652;18.770;2022-11-15T01:34:20;35.50;;;32.05;;
53915;SDS011;39827;49.652;18.770;2022-11-15T01:36:46;33.65;;;30.40;;
53915;SDS011;39827;49.652;18.770;2022-11-15T01:39:11;52.58;;;48.33;;
53915;SDS011;39827;49.652;18.770;2022-11-15T01:41:37;419.25;;;381.52;;
53915;SDS011;39827;49.652;18.770;2022-11-15T01:46:55;99.18;;;92.15;;
53915;SDS011;39827;49.652;18.770;2022-11-15T01:49:22;37.60;;;34.50;;
53915;SDS011;39827;49.652;18.770;2022-11-15T01:51:49;39.97;;;36.50;;
53915;SDS011;39827;49.652;18.770;2022-11-15T01:54:16;100.18;;;92.55;;
53915;SDS011;39827;49.652;18.770;2022-11-15T01:56:50;103.28;;;95.60;;
53915;SDS011;39827;49.652;18.770;2022-11-15T01:59:21;299.50;;;273.55;;
53915;SDS011;39827;49.652;18.770;2022-11-15T02:01:47;1365.40;;;736.80;;
53915;SDS011;39827;49.652;18.770;2022-11-15T02:04:14;388.20;;;354.05;;
53915;SDS011;39827;49.652;18.770;2022-11-15T02:06:43;881.58;;;616.40;;
53915;SDS011;39827;49.652;18.770;2022-11-15T02:09:10;1999.90;;;988.33;;
53915;SDS011;39827;49.652;18.770;2022-11-15T02:11:37;1985.85;;;965.83;;
53915;SDS011;39827;49.652;18.770;2022-11-15T02:14:02;456.90;;;415.25;;
53915;SDS011;39827;49.652;18.770;2022-11-15T02:19:15;630.72;;;570.38;;
53915;SDS011;39827;49.652;18.770;2022-11-15T02:22:03;33.70;;;30.88;;
53915;SDS011;39827;49.652;18.770;2022-11-15T02:33:05;93.53;;;87.10;;
53915;SDS011;39827;49.652;18.770;2022-11-15T02:36:18;66.25;;;61.65;;
53915;SDS011;39827;49.652;18.770;2022-11-15T02:41:25;798.72;;;631.15;;
53915;SDS011;39827;49.652;18.770;2022-11-15T02:43:59;1999.90;;;945.25;;
53915;SDS011;39827;49.652;18.770;2022-11-15T02:46:40;93.05;;;86.55;;
53915;SDS011;39827;49.652;18.770;2022-11-15T02:49:29;665.30;;;581.40;;
53915;SDS011;39827;49.652;18.770;2022-11-15T02:51:57;905.67;;;738.28;;
53915;SDS011;39827;49.652;18.770;2022-11-15T02:54:24;1022.25;;;720.72;;
53915;SDS011;39827;49.652;18.770;2022-11-15T02:56:55;779.45;;;695.08;;
53915;SDS011;39827;49.652;18.770;2022-11-15T02:59:27;498.75;;;452.77;;
53915;SDS011;39827;49.652;18.770;2022-11-15T03:04:29;38.33;;;35.50;;
53915;SDS011;39827;49.652;18.770;2022-11-15T03:15:17;29.10;;;26.80;;
53915;SDS011;39827;49.652;18.770;2022-11-15T03:20:41;34.92;;;32.38;;
53915;SDS011;39827;49.652;18.770;2022-11-15T03:23:08;21.98;;;20.08;;
53915;SDS011;39827;49.652;18.770;2022-11-15T03:25:36;30.25;;;27.70;;
53915;SDS011;39827;49.652;18.770;2022-11-15T03:28:05;15.43;;;13.98;;
53915;SDS011;39827;49.652;18.770;2022-11-15T03:30:34;12.95;;;11.65;;
53915;SDS011;39827;49.652;18.770;2022-11-15T03:33:02;12.80;;;11.50;;
53915;SDS011;39827;49.652;18.770;2022-11-15T03:35:37;15.27;;;11.32;;
53915;SDS011;39827;49.652;18.770;2022-11-15T03:40:41;16.63;;;14.85;;
53915;SDS011;39827;49.652;18.770;2022-11-15T03:45:44;39.08;;;36.00;;
53915;SDS011;39827;49.652;18.770;2022-11-15T03:48:17;29.73;;;27.38;;
53915;SDS011;39827;49.652;18.770;2022-11-15T03:50:46;30.35;;;27.83;;
53915;SDS011;39827;49.652;18.770;2022-11-15T03:53:13;32.30;;;29.48;;
53915;SDS011;39827;49.652;18.770;2022-11-15T03:55:39;38.95;;;35.75;;
53915;SDS011;39827;49.652;18.770;2022-11-15T03:58:04;56.92;;;52.80;;
53915;SDS011;39827;49.652;18.770;2022-11-15T04:00:30;30.67;;;27.73;;
53915;SDS011;39827;49.652;18.770;2022-11-15T04:02:56;273.15;;;250.55;;
53915;SDS011;39827;49.652;18.770;2022-11-15T04:05:21;32.25;;;29.80;;
53915;SDS011;39827;49.652;18.770;2022-11-15T04:07:46;23.92;;;21.90;;
53915;SDS011;39827;49.652;18.770;2022-11-15T04:10:12;27.65;;;25.25;;
53915;SDS011;39827;49.652;18.770;2022-11-15T04:12:40;43.58;;;38.40;;
53915;SDS011;39827;49.652;18.770;2022-11-15T04:15:15;87.18;;;51.40;;
53915;SDS011;39827;49.652;18.770;2022-11-15T04:17:45;70.28;;;47.38;;
53915;SDS011;39827;49.652;18.770;2022-11-15T04:20:19;80.35;;;51.47;;
53915;SDS011;39827;49.652;18.770;2022-11-15T04:23:18;44.10;;;36.70;;
53915;SDS011;39827;49.652;18.770;2022-11-15T04:26:07;61.45;;;56.00;;
53915;SDS011;39827;49.652;18.770;2022-11-15T04:28:36;358.90;;;325.88;;
53915;SDS011;39827;49.652;18.770;2022-11-15T04:31:24;328.20;;;299.70;;
53915;SDS011;39827;49.652;18.770;2022-11-15T04:33:49;326.27;;;296.02;;
53915;SDS011;39827;49.652;18.770;2022-11-15T04:36:15;66.68;;;61.25;;
53915;SDS011;39827;49.652;18.770;2022-11-15T04:38:58;329.10;;;298.98;;
53915;SDS011;39827;49.652;18.770;2022-11-15T04:41:24;627.75;;;564.65;;
53915;SDS011;39827;49.652;18.770;2022-11-15T04:43:49;161.07;;;148.90;;
53915;SDS011;39827;49.652;18.770;2022-11-15T04:46:14;114.53;;;105.65;;
53915;SDS011;39827;49.652;18.770;2022-11-15T04:48:40;646.50;;;577.10;;
53915;SDS011;39827;49.652;18.770;2022-11-15T04:51:05;1999.90;;;999.90;;
53915;SDS011;39827;49.652;18.770;2022-11-15T04:53:30;1999.90;;;985.78;;
53915;SDS011;39827;49.652;18.770;2022-11-15T04:55:56;706.17;;;636.92;;
53915;SDS011;39827;49.652;18.770;2022-11-15T04:58:21;154.88;;;143.70;;
53915;SDS011;39827;49.652;18.770;2022-11-15T05:00:46;113.75;;;105.80;;
53915;SDS011;39827;49.652;18.770;2022-11-15T05:03:12;161.32;;;148.90;;
53915;SDS011;39827;49.652;18.770;2022-11-15T05:05:56;28.55;;;26.35;;
53915;SDS011;39827;49.652;18.770;2022-11-15T05:08:22;26.92;;;24.83;;
53915;SDS011;39827;49.652;18.770;2022-11-15T05:10:48;28.30;;;25.77;;
53915;SDS011;39827;49.652;18.770;2022-11-15T05:13:13;16.90;;;15.27;;
53915;SDS011;39827;49.652;18.770;2022-11-15T05:15:38;11.45;;;10.25;;
53915;SDS011;39827;49.652;18.770;2022-11-15T05:18:03;11.25;;;7.97;;
53915;SDS011;39827;49.652;18.770;2022-11-15T05:20:29;9.05;;;7.50;;
53915;SDS011;39827;49.652;18.770;2022-11-15T05:22:54;70.65;;;63.03;;
53915;SDS011;39827;49.652;18.770;2022-11-15T05:25:21;11.32;;;10.07;;
53915;SDS011;39827;49.652;18.770;2022-11-15T05:27:47;10.90;;;8.93;;
53915;SDS011;39827;49.652;18.770;2022-11-15T05:30:13;12.98;;;10.38;;
53915;SDS011;39827;49.652;18.770;2022-11-15T05:32:38;11.32;;;10.23;;
53915;SDS011;39827;49.652;18.770;2022-11-15T05:35:04;24.48;;;20.98;;
53915;SDS011;39827;49.652;18.770;2022-11-15T05:37:34;12.60;;;10.90;;
53915;SDS011;39827;49.652;18.770;2022-11-15T05:40:00;47.88;;;35.50;;
53915;SDS011;39827;49.652;18.770;2022-11-15T05:42:25;9.85;;;8.43;;
53915;SDS011;39827;49.652;18.770;2022-11-15T05:44:52;9.88;;;8.57;;
53915;SDS011;39827;49.652;18.770;2022-11-15T05:47:22;13.02;;;8.35;;
53915;SDS011;39827;49.652;18.770;2022-11-15T05:49:51;12.20;;;8.98;;
53915;SDS011;39827;49.652;18.770;2022-11-15T05:52:19;10.13;;;8.77;;
53915;SDS011;39827;49.652;18.770;2022-11-15T05:54:48;11.70;;;10.40;;
53915;SDS011;39827;49.652;18.770;2022-11-15T05:57:15;11.57;;;9.02;;
53915;SDS011;39827;49.652;18.770;2022-11-15T05:59:40;11.65;;;9.68;;
53915;SDS011;39827;49.652;18.770;2022-11-15T06:02:08;11.57;;;9.48;;
53915;SDS011;39827;49.652;18.770;2022-11-15T06:04:34;12.10;;;10.80;;
53915;SDS011;39827;49.652;18.770;2022-11-15T06:06:59;13.60;;;10.20;;
53915;SDS011;39827;49.652;18.770;2022-11-15T06:09:24;12.85;;;9.80;;
53915;SDS011;39827;49.652;18.770;2022-11-15T06:11:50;13.77;;;10.02;;
53915;SDS011;39827;49.652;18.770;2022-11-15T06:14:15;13.98;;;9.65;;
53915;SDS011;39827;49.652;18.770;2022-11-15T06:16:40;11.88;;;9.30;;
53915;SDS011;39827;49.652;18.770;2022-11-15T06:19:06;13.32;;;9.20;;
53915;SDS011;39827;49.652;18.770;2022-11-15T06:21:32;11.68;;;8.85;;
53915;SDS011;39827;49.652;18.770;2022-11-15T06:23:58;12.10;;;10.07;;
53915;SDS011;39827;49.652;18.770;2022-11-15T06:26:23;12.27;;;9.45;;
53915;SDS011;39827;49.652;18.770;2022-11-15T06:28:48;11.05;;;9.00;;
53915;SDS011;39827;49.652;18.770;2022-11-15T06:31:14;10.55;;;8.55;;
53915;SDS011;39827;49.652;18.770;2022-11-15T06:33:39;13.20;;;10.85;;
53915;SDS011;39827;49.652;18.770;2022-11-15T06:36:08;12.27;;;9.02;;
53915;SDS011;39827;49.652;18.770;2022-11-15T06:38:38;11.48;;;9.25;;
53915;SDS011;39827;49.652;18.770;2022-11-15T06:41:05;15.00;;;9.30;;
53915;SDS011;39827;49.652;18.770;2022-11-15T06:43:32;11.00;;;9.48;;
53915;SDS011;39827;49.652;18.770;2022-11-15T06:45:58;10.63;;;9.02;;
53915;SDS011;39827;49.652;18.770;2022-11-15T06:48:24;12.50;;;8.95;;
53915;SDS011;39827;49.652;18.770;2022-11-15T06:50:51;10.57;;;8.48;;
53915;SDS011;39827;49.652;18.770;2022-11-15T06:53:20;10.50;;;8.93;;
53915;SDS011;39827;49.652;18.770;2022-11-15T06:55:45;9.68;;;8.68;;
53915;SDS011;39827;49.652;18.770;2022-11-15T06:58:11;9.38;;;8.10;;
53915;SDS011;39827;49.652;18.770;2022-11-15T07:00:36;11.98;;;9.65;;
53915;SDS011;39827;49.652;18.770;2022-11-15T07:03:02;13.40;;;11.02;;
53915;SDS011;39827;49.652;18.770;2022-11-15T07:05:27;13.88;;;11.40;;
53915;SDS011;39827;49.652;18.770;2022-11-15T07:07:53;11.75;;;9.98;;
53915;SDS011;39827;49.652;18.770;2022-11-15T07:10:19;11.20;;;9.88;;
53915;SDS011;39827;49.652;18.770;2022-11-15T07:12:48;8.45;;;7.60;;
53915;SDS011;39827;49.652;18.770;2022-11-15T07:15:14;10.50;;;9.40;;
53915;SDS011;39827;49.652;18.770;2022-11-15T07:17:40;8.63;;;7.53;;
53915;SDS011;39827;49.652;18.770;2022-11-15T07:20:06;15.95;;;9.02;;
53915;SDS011;39827;49.652;18.770;2022-11-15T07:22:32;11.70;;;7.80;;
53915;SDS011;39827;49.652;18.770;2022-11-15T07:24:57;10.68;;;7.50;;
53915;SDS011;39827;49.652;18.770;2022-11-15T07:27:22;10.27;;;9.13;;
53915;SDS011;39827;49.652;18.770;2022-11-15T07:29:48;10.85;;;9.05;;
53915;SDS011;39827;49.652;18.770;2022-11-15T07:32:13;11.68;;;9.25;;
53915;SDS011;39827;49.652;18.770;2022-11-15T07:34:38;11.80;;;10.70;;
53915;SDS011;39827;49.652;18.770;2022-11-15T07:37:04;22.55;;;20.85;;
53915;SDS011;39827;49.652;18.770;2022-11-15T07:39:29;28.38;;;26.35;;
53915;SDS011;39827;49.652;18.770;2022-11-15T07:41:54;28.17;;;26.17;;
53915;SDS011;39827;49.652;18.770;2022-11-15T07:44:39;29.40;;;27.45;;
53915;SDS011;39827;49.652;18.770;2022-11-15T07:47:05;31.48;;;29.38;;
53915;SDS011;39827;49.652;18.770;2022-11-15T07:49:30;39.10;;;36.35;;
53915;SDS011;39827;49.652;18.770;2022-11-15T07:51:56;57.22;;;53.47;;
53915;SDS011;39827;49.652;18.770;2022-11-15T07:54:21;53.78;;;50.28;;
53915;SDS011;39827;49.652;18.770;2022-11-15T07:56:46;66.47;;;62.25;;
53915;SDS011;39827;49.652;18.770;2022-11-15T07:59:12;65.97;;;61.92;;
53915;SDS011;39827;49.652;18.770;2022-11-15T08:01:37;61.60;;;57.50;;
53915;SDS011;39827;49.652;18.770;2022-11-15T08:04:02;43.90;;;41.00;;
53915;SDS011;39827;49.652;18.770;2022-11-15T08:06:28;26.70;;;24.90;;
53915;SDS011;39827;49.652;18.770;2022-11-15T08:08:53;38.28;;;35.63;;
53915;SDS011;39827;49.652;18.770;2022-11-15T08:11:18;34.38;;;32.15;;
53915;SDS011;39827;49.652;18.770;2022-11-15T08:13:44;16.92;;;15.73;;
53915;SDS011;39827;49.652;18.770;2022-11-15T08:16:09;23.92;;;22.23;;
53915;SDS011;39827;49.652;18.770;2022-11-15T08:18:36;18.52;;;17.13;;
53915;SDS011;39827;49.652;18.770;2022-11-15T08:21:02;14.82;;;13.73;;
53915;SDS011;39827;49.652;18.770;2022-11-15T08:23:28;14.57;;;13.23;;
53915;SDS011;39827;49.652;18.770;2022-11-15T08:25:58;17.13;;;15.75;;
53915;SDS011;39827;49.652;18.770;2022-11-15T08:28:27;25.27;;;23.55;;
53915;SDS011;39827;49.652;18.770;2022-11-15T08:30:53;52.30;;;48.92;;
53915;SDS011;39827;49.652;18.770;2022-11-15T08:33:19;44.05;;;41.22;;
53915;SDS011;39827;49.652;18.770;2022-11-15T08:35:44;36.80;;;34.30;;
53915;SDS011;39827;49.652;18.770;2022-11-15T08:38:10;29.90;;;27.80;;
53915;SDS011;39827;49.652;18.770;2022-11-15T08:40:35;28.67;;;26.58;;
53915;SDS011;39827;49.652;18.770;2022-11-15T08:43:01;22.50;;;20.70;;
53915;SDS011;39827;49.652;18.770;2022-11-15T08:45:28;17.02;;;15.55;;
53915;SDS011;39827;49.652;18.770;2022-11-15T08:47:54;15.07;;;13.90;;
53915;SDS011;39827;49.652;18.770;2022-11-15T08:50:20;16.45;;;15.20;;
53915;SDS011;39827;49.652;18.770;2022-11-15T08:52:47;13.27;;;12.18;;
53915;SDS011;39827;49.652;18.770;2022-11-15T08:55:15;14.73;;;13.52;;
53915;SDS011;39827;49.652;18.770;2022-11-15T08:57:40;12.70;;;11.65;;
53915;SDS011;39827;49.652;18.770;2022-11-15T09:00:05;13.23;;;12.05;;
53915;SDS011;39827;49.652;18.770;2022-11-15T09:02:31;16.08;;;14.70;;
53915;SDS011;39827;49.652;18.770;2022-11-15T09:04:57;15.98;;;14.55;;
53915;SDS011;39827;49.652;18.770;2022-11-15T09:07:22;14.30;;;12.93;;
53915;SDS011;39827;49.652;18.770;2022-11-15T09:09:47;14.23;;;12.90;;
53915;SDS011;39827;49.652;18.770;2022-11-15T09:12:13;13.40;;;12.30;;
53915;SDS011;39827;49.652;18.770;2022-11-15T09:14:38;13.90;;;12.60;;
53915;SDS011;39827;49.652;18.770;2022-11-15T09:17:06;12.65;;;11.55;;
53915;SDS011;39827;49.652;18.770;2022-11-15T09:19:33;11.85;;;10.65;;
53915;SDS011;39827;49.652;18.770;2022-11-15T09:21:58;11.82;;;10.23;;
53915;SDS011;39827;49.652;18.770;2022-11-15T09:24:24;11.18;;;10.23;;
53915;SDS011;39827;49.652;18.770;2022-11-15T09:26:50;12.13;;;10.77;;
53915;SDS011;39827;49.652;18.770;2022-11-15T09:29:16;15.35;;;9.88;;
53915;SDS011;39827;49.652;18.770;2022-11-15T09:31:42;11.27;;;10.27;;
53915;SDS011;39827;49.652;18.770;2022-11-15T09:34:07;12.40;;;11.30;;
53915;SDS011;39827;49.652;18.770;2022-11-15T09:36:33;10.95;;;9.80;;
53915;SDS011;39827;49.652;18.770;2022-11-15T09:38:58;9.48;;;8.55;;
53915;SDS011;39827;49.652;18.770;2022-11-15T09:44:21;13.88;;;12.50;;
53915;SDS011;39827;49.652;18.770;2022-11-15T09:47:21;11.95;;;10.75;;
53915;SDS011;39827;49.652;18.770;2022-11-15T09:49:51;9.57;;;8.68;;
53915;SDS011;39827;49.652;18.770;2022-11-15T09:52:19;11.73;;;10.15;;
53915;SDS011;39827;49.652;18.770;2022-11-15T09:54:49;12.93;;;9.98;;
53915;SDS011;39827;49.652;18.770;2022-11-15T10:05:23;9.57;;;8.57;;
53915;SDS011;39827;49.652;18.770;2022-11-15T10:10:39;12.32;;;11.00;;
53915;SDS011;39827;49.652;18.770;2022-11-15T10:13:10;12.55;;;11.18;;
53915;SDS011;39827;49.652;18.770;2022-11-15T10:15:42;12.30;;;10.35;;
53915;SDS011;39827;49.652;18.770;2022-11-15T10:18:29;10.38;;;9.38;;
53915;SDS011;39827;49.652;18.770;2022-11-15T10:21:18;12.82;;;11.63;;
53915;SDS011;39827;49.652;18.770;2022-11-15T10:23:49;10.18;;;9.15;;
53915;SDS011;39827;49.652;18.770;2022-11-15T10:26:16;11.77;;;10.63;;
53915;SDS011;39827;49.652;18.770;2022-11-15T10:28:42;12.88;;;11.68;;
53915;SDS011;39827;49.652;18.770;2022-11-15T10:31:21;11.80;;;9.93;;
53915;SDS011;39827;49.652;18.770;2022-11-15T10:33:51;12.60;;;9.93;;
53915;SDS011;39827;49.652;18.770;2022-11-15T10:36:36;10.77;;;9.02;;
53915;SDS011;39827;49.652;18.770;2022-11-15T10:39:01;12.95;;;11.05;;
53915;SDS011;39827;49.652;18.770;2022-11-15T10:49:28;11.82;;;10.18;;
53915;SDS011;39827;49.652;18.770;2022-11-15T10:51:55;13.30;;;10.25;;
53915;SDS011;39827;49.652;18.770;2022-11-15T10:54:28;12.95;;;11.70;;
53915;SDS011;39827;49.652;18.770;2022-11-15T10:57:07;11.05;;;9.75;;
53915;SDS011;39827;49.652;18.770;2022-11-15T10:59:38;12.07;;;10.70;;
53915;SDS011;39827;49.652;18.770;2022-11-15T11:07:58;16.90;;;15.38;;
53915;SDS011;39827;49.652;18.770;2022-11-15T11:10:26;18.23;;;16.42;;
53915;SDS011;39827;49.652;18.770;2022-11-15T11:12:52;18.17;;;16.27;;
53915;SDS011;39827;49.652;18.770;2022-11-15T11:15:18;19.52;;;17.73;;
53915;SDS011;39827;49.652;18.770;2022-11-15T11:20:25;16.15;;;14.55;;
53915;SDS011;39827;49.652;18.770;2022-11-15T11:44:32;15.45;;;11.90;;
53915;SDS011;39827;49.652;18.770;2022-11-15T11:49:48;12.40;;;10.23;;
53915;SDS011;39827;49.652;18.770;2022-11-15T11:52:26;12.10;;;9.95;;
53915;SDS011;39827;49.652;18.770;2022-11-15T12:03:50;13.48;;;11.20;;
53915;SDS011;39827;49.652;18.770;2022-11-15T12:08:49;14.48;;;10.48;;
53915;SDS011;39827;49.652;18.770;2022-11-15T12:13:48;12.93;;;10.65;;
53915;SDS011;39827;49.652;18.770;2022-11-15T12:16:22;14.60;;;13.07;;
53915;SDS011;39827;49.652;18.770;2022-11-15T12:18:53;12.93;;;11.10;;
53915;SDS011;39827;49.652;18.770;2022-11-15T12:21:21;15.52;;;11.40;;
53915;SDS011;39827;49.652;18.770;2022-11-15T12:24:14;13.90;;;12.43;;
53915;SDS011;39827;49.652;18.770;2022-11-15T12:27:15;16.20;;;14.48;;
53915;SDS011;39827;49.652;18.770;2022-11-15T12:29:48;14.40;;;12.98;;
53915;SDS011;39827;49.652;18.770;2022-11-15T12:32:28;13.45;;;12.05;;
53915;SDS011;39827;49.652;18.770;2022-11-15T12:34:58;14.10;;;12.45;;
53915;SDS011;39827;49.652;18.770;2022-11-15T12:37:32;14.88;;;11.80;;
53915;SDS011;39827;49.652;18.770;2022-11-15T12:42:56;17.13;;;11.20;;
53915;SDS011;39827;49.652;18.770;2022-11-15T12:47:56;17.90;;;12.82;;
53915;SDS011;39827;49.652;18.770;2022-11-15T12:50:56;16.85;;;12.35;;
53915;SDS011;39827;49.652;18.770;2022-11-15T12:58:38;15.02;;;11.45;;
53915;SDS011;39827;49.652;18.770;2022-11-15T13:01:09;19.00;;;12.77;;
53915;SDS011;39827;49.652;18.770;2022-11-15T13:03:35;13.88;;;11.05;;
53915;SDS011;39827;49.652;18.770;2022-11-15T13:06:02;17.85;;;13.27;;
53915;SDS011;39827;49.652;18.770;2022-11-15T13:08:43;14.00;;;10.15;;
53915;SDS011;39827;49.652;18.770;2022-11-15T13:33:23;11.82;;;8.85;;
53915;SDS011;39827;49.652;18.770;2022-11-15T13:35:54;14.85;;;9.88;;
53915;SDS011;39827;49.652;18.770;2022-11-15T13:38:26;18.17;;;12.80;;
53915;SDS011;39827;49.652;18.770;2022-11-15T13:40:58;79.47;;;33.55;;
53915;SDS011;39827;49.652;18.770;2022-11-15T13:48:36;15.48;;;11.88;;
53915;SDS011;39827;49.652;18.770;2022-11-15T13:51:02;14.43;;;11.48;;
53915;SDS011;39827;49.652;18.770;2022-11-15T13:53:31;19.73;;;14.23;;
53915;SDS011;39827;49.652;18.770;2022-11-15T13:55:58;22.88;;;20.45;;
53915;SDS011;39827;49.652;18.770;2022-11-15T13:58:24;24.27;;;18.20;;
53915;SDS011;39827;49.652;18.770;2022-11-15T14:00:59;16.95;;;12.88;;
53915;SDS011;39827;49.652;18.770;2022-11-15T14:03:31;20.17;;;18.08;;
53915;SDS011;39827;49.652;18.770;2022-11-15T14:16:35;22.92;;;17.10;;
53915;SDS011;39827;49.652;18.770;2022-11-15T14:19:02;20.08;;;15.20;;
53915;SDS011;39827;49.652;18.770;2022-11-15T14:21:29;18.10;;;14.57;;
53915;SDS011;39827;49.652;18.770;2022-11-15T14:24:13;22.25;;;16.90;;
53915;SDS011;39827;49.652;18.770;2022-11-15T14:26:40;19.17;;;16.05;;
53915;SDS011;39827;49.652;18.770;2022-11-15T14:29:21;21.45;;;15.25;;
53915;SDS011;39827;49.652;18.770;2022-11-15T14:31:47;23.50;;;15.30;;
53915;SDS011;39827;49.652;18.770;2022-11-15T14:34:12;26.77;;;17.75;;
53915;SDS011;39827;49.652;18.770;2022-11-15T14:36:38;18.52;;;15.00;;
53915;SDS011;39827;49.652;18.770;2022-11-15T14:39:03;22.88;;;16.95;;
53915;SDS011;39827;49.652;18.770;2022-11-15T14:41:33;23.65;;;14.77;;
53915;SDS011;39827;49.652;18.770;2022-11-15T14:46:28;18.75;;;14.75;;
53915;SDS011;39827;49.652;18.770;2022-11-15T14:48:53;19.30;;;14.82;;
53915;SDS011;39827;49.652;18.770;2022-11-15T14:51:19;19.30;;;14.40;;
53915;SDS011;39827;49.652;18.770;2022-11-15T14:53:44;24.50;;;13.50;;
53915;SDS011;39827;49.652;18.770;2022-11-15T14:56:11;20.15;;;15.00;;
53915;SDS011;39827;49.652;18.770;2022-11-15T14:58:37;31.80;;;20.00;;
53915;SDS011;39827;49.652;18.770;2022-11-15T15:01:05;23.20;;;16.50;;
53915;SDS011;39827;49.652;18.770;2022-11-15T15:03:37;29.73;;;21.48;;
53915;SDS011;39827;49.652;18.770;2022-11-15T15:06:03;25.95;;;19.15;;
53915;SDS011;39827;49.652;18.770;2022-11-15T15:08:28;25.25;;;18.55;;
53915;SDS011;39827;49.652;18.770;2022-11-15T15:10:54;26.20;;;18.17;;
53915;SDS011;39827;49.652;18.770;2022-11-15T15:13:20;22.02;;;16.35;;
53915;SDS011;39827;49.652;18.770;2022-11-15T15:15:48;30.17;;;18.63;;
53915;SDS011;39827;49.652;18.770;2022-11-15T15:18:14;33.60;;;19.30;;
53915;SDS011;39827;49.652;18.770;2022-11-15T15:20:40;26.23;;;17.67;;
53915;SDS011;39827;49.652;18.770;2022-11-15T15:23:14;27.08;;;19.73;;
53915;SDS011;39827;49.652;18.770;2022-11-15T15:25:43;29.10;;;18.77;;
53915;SDS011;39827;49.652;18.770;2022-11-15T15:28:10;26.38;;;17.48;;
53915;SDS011;39827;49.652;18.770;2022-11-15T15:30:36;27.00;;;17.33;;
53915;SDS011;39827;49.652;18.770;2022-11-15T15:33:01;25.95;;;17.23;;
53915;SDS011;39827;49.652;18.770;2022-11-15T15:35:29;30.38;;;18.98;;
53915;SDS011;39827;49.652;18.770;2022-11-15T15:37:57;40.17;;;21.23;;
53915;SDS011;39827;49.652;18.770;2022-11-15T15:40:23;61.03;;;28.65;;
53915;SDS011;39827;49.652;18.770;2022-11-15T15:42:50;61.03;;;29.73;;
53915;SDS011;39827;49.652;18.770;2022-11-15T15:45:16;54.10;;;29.38;;
53915;SDS011;39827;49.652;18.770;2022-11-15T15:47:42;54.40;;;28.17;;
53915;SDS011;39827;49.652;18.770;2022-11-15T15:50:14;63.28;;;30.05;;
53915;SDS011;39827;49.652;18.770;2022-11-15T15:52:42;57.53;;;27.27;;
53915;SDS011;39827;49.652;18.770;2022-11-15T15:55:07;62.17;;;29.42;;
53915;SDS011;39827;49.652;18.770;2022-11-15T15:57:33;56.95;;;28.90;;
53915;SDS011;39827;49.652;18.770;2022-11-15T15:59:59;67.40;;;30.50;;
53915;SDS011;39827;49.652;18.770;2022-11-15T16:02:24;61.33;;;29.40;;
53915;SDS011;39827;49.652;18.770;2022-11-15T16:04:49;63.22;;;30.30;;
53915;SDS011;39827;49.652;18.770;2022-11-15T16:07:20;64.03;;;31.23;;
53915;SDS011;39827;49.652;18.770;2022-11-15T16:09:48;63.63;;;30.98;;
53915;SDS011;39827;49.652;18.770;2022-11-15T16:12:35;63.75;;;32.40;;
53915;SDS011;39827;49.652;18.770;2022-11-15T16:15:00;61.97;;;31.10;;
53915;SDS011;39827;49.652;18.770;2022-11-15T16:17:28;64.38;;;31.50;;
53915;SDS011;39827;49.652;18.770;2022-11-15T16:19:57;62.17;;;31.75;;
53915;SDS011;39827;49.652;18.770;2022-11-15T16:22:22;58.53;;;32.10;;
53915;SDS011;39827;49.652;18.770;2022-11-15T16:24:48;66.45;;;32.05;;
53915;SDS011;39827;49.652;18.770;2022-11-15T16:27:17;61.80;;;32.13;;
53915;SDS011;39827;49.652;18.770;2022-11-15T16:29:45;60.58;;;31.95;;
53915;SDS011;39827;49.652;18.770;2022-11-15T16:32:11;58.53;;;28.52;;
53915;SDS011;39827;49.652;18.770;2022-11-15T16:34:37;52.38;;;27.88;;
53915;SDS011;39827;49.652;18.770;2022-11-15T16:37:03;56.63;;;28.88;;
53915;SDS011;39827;49.652;18.770;2022-11-15T16:39:29;58.78;;;32.20;;
53915;SDS011;39827;49.652;18.770;2022-11-15T16:41:58;68.78;;;35.85;;
53915;SDS011;39827;49.652;18.770;2022-11-15T16:44:24;56.20;;;28.27;;
53915;SDS011;39827;49.652;18.770;2022-11-15T16:46:50;47.35;;;24.92;;
53915;SDS011;39827;49.652;18.770;2022-11-15T16:49:16;44.85;;;24.60;;
53915;SDS011;39827;49.652;18.770;2022-11-15T16:51:44;26.35;;;16.08;;